createdAt,value
2018-01-03T00:01:37.939Z,74.93
2018-01-03T00:04:05.872Z,73.73
2018-01-03T00:06:34.541Z,77.03
2018-01-03T00:09:03.591Z,71.73
2018-01-03T00:11:31.537Z,72.90
2018-01-03T00:13:59.471Z,74.93
2018-01-03T00:16:27.523Z,71.93
2018-01-03T00:18:55.499Z,71.13
2018-01-03T00:21:23.415Z,84.03
2018-01-03T00:23:51.476Z,79.97
2018-01-03T00:26:20.200Z,76.83
2018-01-03T00:28:48.133Z,79.80
2018-01-03T00:31:16.936Z,72.13
2018-01-03T00:33:44.863Z,78.77
2018-01-03T00:36:12.965Z,75.73
2018-01-03T00:38:41.751Z,73.07
2018-01-03T00:41:10.420Z,85.47
2018-01-03T00:43:38.349Z,74.47
2018-01-03T00:46:06.427Z,81.03
2018-01-03T00:48:34.365Z,81.47
2018-01-03T00:51:02.297Z,77.13
2018-01-03T00:53:30.479Z,74.17
2018-01-03T00:55:58.403Z,70.63
2018-01-03T00:58:26.344Z,78.23
2018-01-03T01:00:55.145Z,81.20
2018-01-03T01:03:23.073Z,80.00
2018-01-03T01:05:51.005Z,80.43
2018-01-03T01:08:19.053Z,76.40
2018-01-03T01:10:46.971Z,75.20
2018-01-03T01:13:14.887Z,81.37
2018-01-03T01:15:43.679Z,74.53
2018-01-03T01:18:11.615Z,75.80
2018-01-03T01:20:39.548Z,77.93
2018-01-03T01:23:07.596Z,80.23
2018-01-03T01:25:35.532Z,80.43
2018-01-03T01:28:04.199Z,85.80
2018-01-03T01:30:32.260Z,83.30
2018-01-03T01:33:00.188Z,84.10
2018-01-03T01:35:28.881Z,79.90
2018-01-03T01:37:56.920Z,82.53
2018-01-03T01:40:24.839Z,86.73
2018-01-03T01:42:52.777Z,82.37
2018-01-03T01:45:21.569Z,81.20
2018-01-03T01:47:50.233Z,86.63
2018-01-03T01:50:18.184Z,90.27
2018-01-03T01:52:46.237Z,87.23
2018-01-03T01:55:14.309Z,97.47
2018-01-03T01:57:42.245Z,93.83
2018-01-03T02:00:11.189Z,96.60
2018-01-03T02:02:39.121Z,85.07
2018-01-03T02:05:07.045Z,89.60
2018-01-03T02:07:35.083Z,93.73
2018-01-03T02:10:03.028Z,95.60
2018-01-03T02:12:30.948Z,80.77
2018-01-03T02:14:59.008Z,90.70
2018-01-03T02:17:26.931Z,88.63
2018-01-03T02:19:55.603Z,88.60
2018-01-03T02:22:24.400Z,91.77
2018-01-03T02:24:53.094Z,83.37
2018-01-03T02:27:21.764Z,89.87
2018-01-03T02:29:50.555Z,90.43
2018-01-03T02:32:19.231Z,82.07
2018-01-03T02:34:47.151Z,85.10
2018-01-03T02:37:15.206Z,89.43
2018-01-03T02:39:43.132Z,89.10
2018-01-03T02:42:11.059Z,82.70
2018-01-03T02:44:39.121Z,86.03
2018-01-03T02:47:07.061Z,81.67
2018-01-03T02:49:35.732Z,86.40
2018-01-03T02:52:03.779Z,91.57
2018-01-03T02:54:31.714Z,83.23
2018-01-03T02:56:59.771Z,82.77
2018-01-03T02:59:28.585Z,93.50
2018-01-03T03:01:56.584Z,92.43
2018-01-03T03:04:24.524Z,82.43
2018-01-03T03:06:52.581Z,88.73
2018-01-03T03:09:21.260Z,80.77
2018-01-03T03:11:49.920Z,81.40
2018-01-03T03:14:17.959Z,89.77
2018-01-03T03:16:45.908Z,87.40
2018-01-03T03:19:13.828Z,86.33
2018-01-03T03:21:41.879Z,86.23
2018-01-03T03:24:09.825Z,78.73
2018-01-03T03:26:37.777Z,91.40
2018-01-03T03:29:06.563Z,89.40
2018-01-03T03:31:35.228Z,77.10
2018-01-03T03:34:03.155Z,92.07
2018-01-03T03:36:31.201Z,81.33
2018-01-03T03:38:59.880Z,97.50
2018-01-03T03:41:28.539Z,77.37
2018-01-03T03:43:56.592Z,81.70
2018-01-03T03:46:24.517Z,82.20
2018-01-03T03:48:53.180Z,105.23
2018-01-03T03:51:21.229Z,86.77
2018-01-03T03:53:49.167Z,81.43
2018-01-03T03:56:17.113Z,82.90
2018-01-03T03:58:46.036Z,83.37
2018-01-03T04:01:13.976Z,78.97
2018-01-03T04:03:42.658Z,81.67
2018-01-03T04:06:11.473Z,84.17
2018-01-03T04:08:39.414Z,75.27
2018-01-03T04:11:08.080Z,80.83
2018-01-03T04:13:36.151Z,80.23
2018-01-03T04:16:04.081Z,75.93
2018-01-03T04:18:32.065Z,79.27
2018-01-03T04:21:00.108Z,74.77
2018-01-03T04:23:28.039Z,85.77
2018-01-03T04:25:55.963Z,74.80
2018-01-03T04:28:24.038Z,72.00
2018-01-03T04:30:51.976Z,81.13
2018-01-03T04:33:20.647Z,73.13
2018-01-03T04:35:49.449Z,84.20
2018-01-03T04:38:18.107Z,77.33
2018-01-03T04:40:46.039Z,77.70
2018-01-03T04:43:14.097Z,74.30
2018-01-03T04:45:42.040Z,83.70
2018-01-03T04:48:10.700Z,75.43
2018-01-03T04:50:38.772Z,88.27
2018-01-03T04:53:06.705Z,75.13
2018-01-03T04:55:34.624Z,78.50
2018-01-03T04:58:02.688Z,83.63
2018-01-03T05:00:30.765Z,75.13
2018-01-03T05:02:58.693Z,70.93
2018-01-03T05:05:26.743Z,70.07
2018-01-03T05:07:55.421Z,77.70
2018-01-03T05:10:24.081Z,64.83
2018-01-03T05:12:52.127Z,77.47
2018-01-03T05:15:20.082Z,83.73
2018-01-03T05:17:48.021Z,67.13
2018-01-03T05:20:16.807Z,75.43
2018-01-03T05:22:45.468Z,74.00
2018-01-03T05:25:13.396Z,60.93
2018-01-03T05:27:41.462Z,65.40
2018-01-03T05:30:09.545Z,68.80
2018-01-03T05:32:37.479Z,61.27
2018-01-03T05:35:06.277Z,67.23
2018-01-03T05:37:34.943Z,67.80
2018-01-03T05:40:02.864Z,85.33
2018-01-03T05:42:30.968Z,68.37
2018-01-03T05:44:58.899Z,66.83
2018-01-03T05:47:26.824Z,53.90
2018-01-03T05:49:54.885Z,52.97
2018-01-03T05:52:22.824Z,55.57
2018-01-03T05:54:50.769Z,66.67
2018-01-03T05:57:18.885Z,58.80
2018-01-03T05:59:46.825Z,56.83
2018-01-03T06:02:14.887Z,57.07
2018-01-03T06:04:42.961Z,70.13
2018-01-03T06:07:10.890Z,60.53
2018-01-03T06:09:38.836Z,67.20
2018-01-03T06:12:06.898Z,72.70
2018-01-03T06:14:34.831Z,60.40
2018-01-03T06:17:03.524Z,56.63
2018-01-03T06:19:31.584Z,65.20
2018-01-03T06:22:00.252Z,58.03
2018-01-03T06:24:28.189Z,61.93
2018-01-03T06:26:56.253Z,65.93
2018-01-03T06:29:24.176Z,60.27
2018-01-03T06:31:52.831Z,63.60
2018-01-03T06:34:20.885Z,61.57
2018-01-03T06:36:48.993Z,67.77
2018-01-03T06:39:16.929Z,70.20
2018-01-03T06:41:45.001Z,70.53
2018-01-03T06:44:13.645Z,72.40
2018-01-03T06:46:42.305Z,67.37
2018-01-03T06:49:11.333Z,66.50
2018-01-03T06:51:42.737Z,72.40
2018-01-03T06:54:11.242Z,79.40
2018-01-03T06:56:40.993Z,81.97
2018-01-03T06:59:09.322Z,66.47
2018-01-03T07:01:38.393Z,61.47
2018-01-03T07:04:06.707Z,67.80
2018-01-03T07:06:34.640Z,60.83
2018-01-03T07:09:02.577Z,58.83
2018-01-03T07:11:30.957Z,62.97
2018-01-03T07:13:59.044Z,49.17
2018-01-03T07:16:27.135Z,31.90
2018-01-03T07:18:55.404Z,32.07
2018-01-03T07:21:24.191Z,37.50
2018-01-03T07:23:52.675Z,42.23
2018-01-03T07:26:21.315Z,37.40
2018-01-03T07:28:50.492Z,40.90
2018-01-03T07:31:19.065Z,28.37
2018-01-03T07:33:47.516Z,34.47
2018-01-03T07:36:15.655Z,40.37
2018-01-03T07:38:44.496Z,37.50
2018-01-03T07:41:14.073Z,25.90
2018-01-03T07:43:42.751Z,26.47
2018-01-03T07:46:12.213Z,38.83
2018-01-03T07:48:40.431Z,26.83
2018-01-03T07:51:09.045Z,30.30
2018-01-03T07:53:37.132Z,33.57
2018-01-03T07:56:06.820Z,32.73
2018-01-03T07:58:35.131Z,37.23
2018-01-03T08:01:05.162Z,32.10
2018-01-03T08:03:34.304Z,23.80
2018-01-03T08:06:03.267Z,28.93
2018-01-03T08:08:31.719Z,24.47
2018-01-03T08:10:59.781Z,35.00
2018-01-03T08:13:28.421Z,25.43
2018-01-03T08:15:57.475Z,28.33
2018-01-03T08:18:25.937Z,35.07
2018-01-03T08:20:54.263Z,35.87
2018-01-03T08:23:23.690Z,35.03
2018-01-03T08:25:52.990Z,24.97
2018-01-03T08:28:22.047Z,26.60
2018-01-03T08:30:50.749Z,28.97
2018-01-03T08:33:19.379Z,31.67
2018-01-03T08:35:47.860Z,40.20
2018-01-03T08:38:16.369Z,36.73
2018-01-03T08:40:45.949Z,25.43
2018-01-03T08:43:15.344Z,36.87
2018-01-03T08:45:43.563Z,30.07
2018-01-03T08:48:12.194Z,20.20
2018-01-03T08:50:41.044Z,33.73
2018-01-03T08:53:10.489Z,23.87
2018-01-03T08:55:39.293Z,27.60
2018-01-03T08:58:09.647Z,30.43
2018-01-03T09:00:37.563Z,26.40
2018-01-03T09:03:06.885Z,29.50
2018-01-03T09:05:36.384Z,23.23
2018-01-03T09:08:05.589Z,22.00
2018-01-03T09:10:34.797Z,32.80
2018-01-03T09:13:04.653Z,25.87
2018-01-03T09:15:32.587Z,30.23
2018-01-03T09:18:01.939Z,30.60
2018-01-03T09:20:30.667Z,34.50
2018-01-03T09:22:59.329Z,24.73
2018-01-03T09:25:27.551Z,26.73
2018-01-03T09:27:56.051Z,30.20
2018-01-03T09:30:25.360Z,29.37
2018-01-03T09:32:54.371Z,35.37
2018-01-03T09:35:23.000Z,28.93
2018-01-03T09:37:51.667Z,33.60
2018-01-03T09:53:10.267Z,34.07
2018-01-03T09:55:38.195Z,26.97
2018-01-03T09:58:06.871Z,27.17
2018-01-03T10:00:34.978Z,30.27
2018-01-03T10:03:02.921Z,40.63
2018-01-03T10:05:31.587Z,37.67
2018-01-03T10:07:59.632Z,42.67
2018-01-03T10:10:27.698Z,32.47
2018-01-03T10:12:55.623Z,32.23
2018-01-03T10:15:24.429Z,31.13
2018-01-03T10:17:53.101Z,31.20
2018-01-03T10:20:21.786Z,34.57
2018-01-03T10:22:50.604Z,27.47
2018-01-03T10:25:18.524Z,28.17
2018-01-03T10:27:46.451Z,47.63
2018-01-03T10:30:14.529Z,34.50
2018-01-03T10:32:42.441Z,46.30
2018-01-03T10:35:10.367Z,33.37
2018-01-03T10:37:38.416Z,39.70
2018-01-03T10:40:07.072Z,34.67
2018-01-03T10:42:35.001Z,32.03
2018-01-03T10:45:03.067Z,41.07
2018-01-03T10:47:31.008Z,31.87
2018-01-03T10:49:59.669Z,41.17
2018-01-03T10:52:27.736Z,33.43
2018-01-03T10:54:55.644Z,45.67
2018-01-03T10:57:24.316Z,30.50
2018-01-03T10:59:53.104Z,31.00
2018-01-03T11:02:21.777Z,29.60
2018-01-03T11:04:49.698Z,40.33
2018-01-03T11:07:17.770Z,29.53
2018-01-03T11:09:45.700Z,34.60
2018-01-03T11:12:14.529Z,41.27
2018-01-03T11:14:42.578Z,35.37
2018-01-03T11:17:11.239Z,35.17
2018-01-03T11:19:39.165Z,28.60
2018-01-03T11:22:07.234Z,34.47
2018-01-03T11:24:35.164Z,41.13
2018-01-03T11:27:03.849Z,32.60
2018-01-03T11:29:31.896Z,36.17
2018-01-03T11:31:59.833Z,36.63
2018-01-03T11:34:27.763Z,32.40
2018-01-03T11:36:55.811Z,31.13
2018-01-03T11:39:23.745Z,39.77
2018-01-03T11:41:51.673Z,33.37
2018-01-03T11:44:20.472Z,41.07
2018-01-03T11:46:49.145Z,34.23
2018-01-03T11:49:17.064Z,33.50
2018-01-03T11:51:45.201Z,36.20
2018-01-03T11:54:13.873Z,32.43
2018-01-03T11:56:41.803Z,36.83
2018-01-03T11:59:09.250Z,29.97
2018-01-03T12:01:37.176Z,40.50
2018-01-03T12:04:05.852Z,30.53
2018-01-03T12:06:33.967Z,31.53
2018-01-03T12:09:01.896Z,20.73
2018-01-03T12:11:29.837Z,35.53
2018-01-03T12:13:58.041Z,29.37
2018-01-03T12:16:25.959Z,25.13
2018-01-03T12:18:53.876Z,26.87
2018-01-03T12:21:21.926Z,30.40
2018-01-03T12:23:49.854Z,32.40
2018-01-03T12:26:18.553Z,30.20
2018-01-03T12:28:46.613Z,29.43
2018-01-03T12:31:15.271Z,32.27
2018-01-03T12:33:43.201Z,29.33
2018-01-03T12:36:11.262Z,44.03
2018-01-03T12:38:39.201Z,27.63
2018-01-03T12:41:07.871Z,38.37
2018-01-03T12:43:35.941Z,33.97
2018-01-03T12:46:03.867Z,30.73
2018-01-03T12:48:31.804Z,32.67
2018-01-03T12:51:00.597Z,17.87
2018-01-03T12:53:29.278Z,27.83
2018-01-03T12:55:57.943Z,32.10
2018-01-03T12:58:26.005Z,36.20
2018-01-03T13:00:53.948Z,32.57
2018-01-03T13:03:21.885Z,28.60
2018-01-03T13:05:50.692Z,26.70
2018-01-03T13:08:18.615Z,35.27
2018-01-03T13:10:46.537Z,36.50
2018-01-03T13:13:14.605Z,30.80
2018-01-03T13:15:42.664Z,20.57
2018-01-03T13:18:10.596Z,37.13
2018-01-03T13:20:38.657Z,31.87
2018-01-03T13:23:06.590Z,36.50
2018-01-03T13:25:34.541Z,23.63
2018-01-03T13:28:03.365Z,34.90
2018-01-03T13:30:31.297Z,27.33
2018-01-03T13:32:59.968Z,43.90
2018-01-03T13:35:28.163Z,23.97
2018-01-03T13:37:56.820Z,35.00
2018-01-03T13:40:24.745Z,38.17
2018-01-03T13:42:52.780Z,35.23
2018-01-03T13:45:21.443Z,30.47
2018-01-03T13:47:49.365Z,31.90
2018-01-03T13:50:17.409Z,20.93
2018-01-03T13:52:46.094Z,35.47
2018-01-03T13:55:14.777Z,40.07
2018-01-03T13:57:43.580Z,41.33
2018-01-03T14:00:12.386Z,28.73
2018-01-03T14:02:40.313Z,24.77
2018-01-03T14:05:08.375Z,25.30
2018-01-03T14:07:36.313Z,28.57
2018-01-03T14:10:04.367Z,38.17
2018-01-03T14:12:32.428Z,27.37
2018-01-03T14:15:01.096Z,30.50
2018-01-03T14:17:29.152Z,34.50
2018-01-03T14:19:57.217Z,25.13
2018-01-03T14:22:25.143Z,34.30
2018-01-03T14:24:53.076Z,34.77
2018-01-03T14:27:21.136Z,24.53
2018-01-03T14:29:49.059Z,37.53
2018-01-03T14:32:17.005Z,30.97
2018-01-03T14:34:45.797Z,29.60
2018-01-03T14:37:14.491Z,27.10
2018-01-03T14:39:43.180Z,21.03
2018-01-03T14:42:11.973Z,38.80
2018-01-03T14:44:40.644Z,26.37
2018-01-03T14:47:09.307Z,40.80
2018-01-03T14:49:37.365Z,30.93
2018-01-03T14:52:05.431Z,35.97
2018-01-03T14:54:33.374Z,27.93
2018-01-03T14:57:01.449Z,35.73
2018-01-03T14:59:29.363Z,27.93
2018-01-03T15:01:57.276Z,32.23
2018-01-03T15:04:25.351Z,40.87
2018-01-03T15:06:53.271Z,37.93
2018-01-03T15:09:21.984Z,31.43
2018-01-03T15:11:50.827Z,33.70
2018-01-03T15:14:18.756Z,33.87
2018-01-03T15:16:47.428Z,28.53
2018-01-03T15:19:16.372Z,27.63
2018-01-03T15:21:44.291Z,39.23
2018-01-03T15:24:12.965Z,26.20
2018-01-03T15:26:41.028Z,42.40
2018-01-03T15:29:08.970Z,32.77
2018-01-03T15:31:36.897Z,38.03
2018-01-03T15:34:05.709Z,37.90
2018-01-03T15:36:33.649Z,39.03
2018-01-03T15:39:02.329Z,34.23
2018-01-03T15:41:30.400Z,31.43
2018-01-03T15:43:58.337Z,36.87
2018-01-03T15:46:26.277Z,29.20
2018-01-03T15:48:54.331Z,27.23
2018-01-03T15:51:22.988Z,41.20
2018-01-03T15:53:50.921Z,30.67
2018-01-03T15:56:18.993Z,46.87
2018-01-03T15:58:46.945Z,46.80
2018-01-03T16:01:14.872Z,39.43
2018-01-03T16:03:42.919Z,30.27
2018-01-03T16:06:10.844Z,35.97
2018-01-03T16:08:39.512Z,48.53
2018-01-03T16:11:07.571Z,35.47
2018-01-03T16:13:35.502Z,38.27
2018-01-03T16:16:03.433Z,35.07
2018-01-03T16:18:32.235Z,32.77
2018-01-03T16:21:01.059Z,34.83
2018-01-03T16:23:28.996Z,31.93
2018-01-03T16:25:57.797Z,38.87
2018-01-03T16:28:25.713Z,43.73
2018-01-03T16:30:53.639Z,42.77
2018-01-03T16:33:21.705Z,47.37
2018-01-03T16:35:49.628Z,33.83
2018-01-03T16:38:17.581Z,37.23
2018-01-03T16:40:46.478Z,33.37
2018-01-03T16:43:14.405Z,36.10
2018-01-03T16:45:43.065Z,47.23
2018-01-03T16:48:11.137Z,43.20
2018-01-03T16:50:39.076Z,38.87
2018-01-03T16:53:06.999Z,38.77
2018-01-03T16:55:35.792Z,41.83
2018-01-03T16:58:04.458Z,35.57
2018-01-03T17:00:33.131Z,34.80
2018-01-03T17:03:01.179Z,31.83
2018-01-03T17:05:29.100Z,41.53
2018-01-03T17:07:57.780Z,45.00
2018-01-03T17:10:26.621Z,37.80
2018-01-03T17:12:54.543Z,26.37
2018-01-03T17:15:23.222Z,42.80
2018-01-03T17:17:52.163Z,43.87
2018-01-03T17:20:20.092Z,33.60
2018-01-03T17:22:48.904Z,40.37
2018-01-03T17:25:16.969Z,50.80
2018-01-03T17:27:45.639Z,36.37
2018-01-03T17:30:14.301Z,37.83
2018-01-03T17:32:42.385Z,36.80
2018-01-03T17:35:10.325Z,29.83
2018-01-03T17:37:38.269Z,33.83
2018-01-03T17:40:06.324Z,32.27
2018-01-03T17:42:35.018Z,31.37
2018-01-03T17:45:02.957Z,28.93
2018-01-03T17:47:31.024Z,32.47
2018-01-03T17:49:58.947Z,34.47
2018-01-03T17:52:26.890Z,33.40
2018-01-03T17:54:55.676Z,35.23
2018-01-03T17:57:24.343Z,42.47
2018-01-03T17:59:52.267Z,36.93
2018-01-03T18:02:20.335Z,30.93
2018-01-03T18:04:48.259Z,37.47
2018-01-03T18:07:16.196Z,42.90
2018-01-03T18:09:44.251Z,43.10
2018-01-03T18:12:12.177Z,41.30
2018-01-03T18:14:40.836Z,32.93
2018-01-03T18:17:08.905Z,32.33
2018-01-03T18:19:36.836Z,40.90
2018-01-03T18:22:04.809Z,32.97
2018-01-03T18:24:33.007Z,41.20
2018-01-03T18:27:00.941Z,38.90
2018-01-03T18:29:28.881Z,30.13
2018-01-03T18:31:56.940Z,43.17
2018-01-03T18:34:24.877Z,35.93
2018-01-03T18:36:52.803Z,36.73
2018-01-03T18:39:21.609Z,28.00
2018-01-03T18:41:50.426Z,30.60
2018-01-03T18:44:19.166Z,28.20
2018-01-03T18:46:47.233Z,41.07
2018-01-03T18:49:15.157Z,34.80
2018-01-03T18:51:43.092Z,40.37
2018-01-03T18:54:11.892Z,40.30
2018-01-03T18:56:40.573Z,29.90
2018-01-03T18:59:09.245Z,42.80
2018-01-03T19:01:37.303Z,31.70
2018-01-03T19:04:05.245Z,28.90
2018-01-03T19:06:33.968Z,33.23
2018-01-03T19:09:02.034Z,42.47
2018-01-03T19:11:29.965Z,40.20
2018-01-03T19:13:57.912Z,35.60
2018-01-03T19:16:25.968Z,31.10
2018-01-03T19:18:54.635Z,34.50
2018-01-03T19:21:22.568Z,33.83
2018-01-03T19:23:50.605Z,37.40
2018-01-03T19:26:19.408Z,27.73
2018-01-03T19:28:47.337Z,25.10
2018-01-03T19:31:15.396Z,38.83
2018-01-03T19:33:43.321Z,32.63
2018-01-03T19:36:11.294Z,42.23
2018-01-03T19:38:39.356Z,20.60
2018-01-03T19:41:08.024Z,25.93
2018-01-03T19:43:36.713Z,42.87
2018-01-03T19:46:05.499Z,25.83
2018-01-03T19:48:33.470Z,19.63
2018-01-03T19:51:02.151Z,31.20
2018-01-03T19:53:30.193Z,23.30
2018-01-03T19:55:58.124Z,35.90
2018-01-03T19:58:26.041Z,32.77
2018-01-03T20:00:54.093Z,37.10
2018-01-03T20:03:22.025Z,31.83
2018-01-03T20:05:50.700Z,31.23
2018-01-03T20:08:19.480Z,22.67
2018-01-03T20:10:47.403Z,24.67
2018-01-03T20:13:15.341Z,26.37
2018-01-03T20:15:44.156Z,22.27
2018-01-03T20:18:12.075Z,28.97
2018-01-03T20:20:40.008Z,16.70
2018-01-03T20:23:08.051Z,23.00
2018-01-03T20:25:35.981Z,19.53
2018-01-03T20:28:04.043Z,22.20
2018-01-03T20:30:32.107Z,27.13
2018-01-03T20:33:00.037Z,17.93
2018-01-03T20:35:27.976Z,21.37
2018-01-03T20:37:56.015Z,26.17
2018-01-03T20:40:23.948Z,16.20
2018-01-03T20:42:51.889Z,23.70
2018-01-03T20:45:19.964Z,30.80
2018-01-03T20:47:48.637Z,23.43
2018-01-03T20:50:16.581Z,15.77
2018-01-03T20:52:44.656Z,14.53
2018-01-03T20:55:12.588Z,26.63
2018-01-03T20:57:40.509Z,18.10
2018-01-03T21:00:08.577Z,17.27
2018-01-03T21:02:36.515Z,24.67
2018-01-03T21:05:04.436Z,27.40
2018-01-03T21:07:32.481Z,16.60
2018-01-03T21:10:00.403Z,25.43
2018-01-03T21:12:29.056Z,27.13
2018-01-03T21:14:57.110Z,25.63
2018-01-03T21:17:25.054Z,30.90
2018-01-03T21:19:52.993Z,24.63
2018-01-03T21:22:21.784Z,33.47
2018-01-03T21:24:50.477Z,25.43
2018-01-03T21:27:19.140Z,17.80
2018-01-03T21:29:47.336Z,21.00
2018-01-03T21:32:15.997Z,17.13
2018-01-03T21:34:43.941Z,22.73
2018-01-03T21:37:11.994Z,17.20
2018-01-03T21:39:39.929Z,22.10
2018-01-03T21:42:08.616Z,15.00
2018-01-03T21:44:37.404Z,27.80
2018-01-03T21:47:06.077Z,21.63
2018-01-03T21:49:34.020Z,13.27
2018-01-03T21:52:02.093Z,21.23
2018-01-03T21:54:30.021Z,19.30
2018-01-03T21:56:58.683Z,10.40
2018-01-03T21:59:26.725Z,21.27
2018-01-03T22:01:54.678Z,11.60
2018-01-03T22:04:22.626Z,15.60
2018-01-03T22:06:50.668Z,20.47
2018-01-03T22:09:19.343Z,22.63
2018-01-03T22:11:47.359Z,9.00
2018-01-03T22:14:15.413Z,10.20
2018-01-03T22:16:44.109Z,12.13
2018-01-03T22:19:12.777Z,9.87
2018-01-03T22:21:41.581Z,10.13
2018-01-03T22:24:10.272Z,15.07
2018-01-03T22:26:38.957Z,17.33
2018-01-03T22:29:07.757Z,16.17
2018-01-03T22:31:35.841Z,12.53
2018-01-03T22:34:03.774Z,13.33
2018-01-03T22:36:32.588Z,12.00
2018-01-03T22:39:00.518Z,10.13
2018-01-03T22:41:28.453Z,14.17
2018-01-03T22:43:56.585Z,18.70
2018-01-03T22:46:25.244Z,15.40
2018-01-03T22:48:53.171Z,14.63
2018-01-03T22:51:21.229Z,12.40
2018-01-03T22:53:49.252Z,12.97
2018-01-03T22:56:17.175Z,15.10
2018-01-03T22:58:45.223Z,5.53
2018-01-03T23:01:13.890Z,15.93
2018-01-03T23:03:41.824Z,15.30
2018-01-03T23:06:09.877Z,13.80
2018-01-03T23:08:37.813Z,17.93
2018-01-03T23:11:05.749Z,12.70
2018-01-03T23:13:33.821Z,15.87
2018-01-03T23:16:01.741Z,17.73
2018-01-03T23:18:30.405Z,12.53
2018-01-03T23:20:58.481Z,12.43
2018-01-03T23:23:26.422Z,15.23
2018-01-03T23:25:54.357Z,16.60
2018-01-03T23:28:22.434Z,13.90
2018-01-03T23:30:50.363Z,19.50
2018-01-03T23:33:18.430Z,17.33
2018-01-03T23:35:46.492Z,11.20
2018-01-03T23:38:14.429Z,18.90
2018-01-03T23:40:42.344Z,13.20
2018-01-03T23:43:10.404Z,18.70
2018-01-03T23:45:38.336Z,18.93
2018-01-03T23:48:06.269Z,12.83
2018-01-03T23:50:35.060Z,14.17
2018-01-03T23:53:03.733Z,10.97
2018-01-03T23:55:31.665Z,14.90
2018-01-03T23:57:59.729Z,17.20
